sensor_id;sensor_type;location;lat;lon;timestamp;pressure;altitude;pressure_sealevel;temperature;humidity
52777;BME280;38656;54.260;20.822;2023-04-10T00:01:39;101923.78;;;20.24;45.99
52777;BME280;38656;54.260;20.822;2023-04-10T00:04:05;101929.22;;;20.78;45.79
52777;BME280;38656;54.260;20.822;2023-04-10T00:06:32;101928.97;;;19.70;48.03
52777;BME280;38656;54.260;20.822;2023-04-10T00:08:59;101927.75;;;20.83;45.77
52777;BME280;38656;54.260;20.822;2023-04-10T00:11:26;101933.91;;;20.02;48.39
52777;BME280;38656;54.260;20.822;2023-04-10T00:13:53;101942.88;;;19.45;50.17
52777;BME280;38656;54.260;20.822;2023-04-10T00:16:19;101935.38;;;20.42;47.72
52777;BME280;38656;54.260;20.822;2023-04-10T00:18:46;101940.22;;;17.45;54.75
52777;BME280;38656;54.260;20.822;2023-04-10T00:21:12;101942.50;;;17.60;54.78
52777;BME280;38656;54.260;20.822;2023-04-10T00:23:38;101942.88;;;18.77;51.69
52777;BME280;38656;54.260;20.822;2023-04-10T00:26:05;101940.22;;;20.39;48.59
52777;BME280;38656;54.260;20.822;2023-04-10T00:28:31;101933.69;;;20.69;47.16
52777;BME280;38656;54.260;20.822;2023-04-10T00:30:57;101937.78;;;20.63;47.13
52777;BME280;38656;54.260;20.822;2023-04-10T00:33:23;101952.28;;;20.25;48.14
52777;BME280;38656;54.260;20.822;2023-04-10T00:35:49;101947.56;;;19.81;48.02
52777;BME280;38656;54.260;20.822;2023-04-10T00:38:16;101949.31;;;17.22;56.22
52777;BME280;38656;54.260;20.822;2023-04-10T00:40:42;101950.88;;;15.93;57.65
52777;BME280;38656;54.260;20.822;2023-04-10T00:43:08;101940.41;;;17.84;54.28
52777;BME280;38656;54.260;20.822;2023-04-10T00:45:34;101934.28;;;19.32;49.70
52777;BME280;38656;54.260;20.822;2023-04-10T00:48:02;101938.94;;;18.81;49.77
52777;BME280;38656;54.260;20.822;2023-04-10T00:50:28;101937.22;;;18.41;49.24
52777;BME280;38656;54.260;20.822;2023-04-10T00:52:54;101939.22;;;19.37;48.15
52777;BME280;38656;54.260;20.822;2023-04-10T00:55:23;101933.47;;;18.03;50.19
52777;BME280;38656;54.260;20.822;2023-04-10T00:57:49;101940.59;;;16.55;53.83
52777;BME280;38656;54.260;20.822;2023-04-10T01:00:16;101943.59;;;17.47;54.05
52777;BME280;38656;54.260;20.822;2023-04-10T01:02:43;101940.63;;;19.41;48.12
52777;BME280;38656;54.260;20.822;2023-04-10T01:05:10;101937.75;;;19.62;47.24
52777;BME280;38656;54.260;20.822;2023-04-10T01:08:07;101939.06;;;19.48;47.65
52777;BME280;38656;54.260;20.822;2023-04-10T01:11:12;101943.94;;;19.62;46.70
52777;BME280;38656;54.260;20.822;2023-04-10T01:13:47;101942.50;;;18.91;48.21
52777;BME280;38656;54.260;20.822;2023-04-10T01:16:17;101944.75;;;18.16;49.56
52777;BME280;38656;54.260;20.822;2023-04-10T01:18:56;101943.94;;;17.33;53.30
52777;BME280;38656;54.260;20.822;2023-04-10T01:21:25;101940.72;;;16.97;54.17
52777;BME280;38656;54.260;20.822;2023-04-10T01:29:46;101942.31;;;16.33;57.02
52777;BME280;38656;54.260;20.822;2023-04-10T01:32:19;101942.13;;;16.14;57.22
52777;BME280;38656;54.260;20.822;2023-04-10T01:34:49;101947.84;;;16.53;54.90
52777;BME280;38656;54.260;20.822;2023-04-10T01:37:24;101943.66;;;16.83;54.66
52777;BME280;38656;54.260;20.822;2023-04-10T01:40:00;101947.56;;;15.89;55.52
52777;BME280;38656;54.260;20.822;2023-04-10T01:42:31;101948.97;;;16.83;54.14
52777;BME280;38656;54.260;20.822;2023-04-10T01:44:58;101945.66;;;17.96;50.49
52777;BME280;38656;54.260;20.822;2023-04-10T01:47:26;101936.59;;;18.08;49.88
52777;BME280;38656;54.260;20.822;2023-04-10T01:49:52;101940.63;;;18.43;48.58
52777;BME280;38656;54.260;20.822;2023-04-10T01:52:20;101954.50;;;18.27;49.54
52777;BME280;38656;54.260;20.822;2023-04-10T01:54:48;101949.44;;;16.99;51.37
52777;BME280;38656;54.260;20.822;2023-04-10T01:57:15;101955.34;;;16.70;52.34
52777;BME280;38656;54.260;20.822;2023-04-10T01:59:42;101954.56;;;18.06;50.30
52777;BME280;38656;54.260;20.822;2023-04-10T02:02:09;101957.66;;;18.52;48.74
52777;BME280;38656;54.260;20.822;2023-04-10T02:04:38;101955.91;;;18.91;47.63
52777;BME280;38656;54.260;20.822;2023-04-10T02:07:41;101958.72;;;19.09;46.83
52777;BME280;38656;54.260;20.822;2023-04-10T02:10:10;101947.38;;;18.47;48.28
52777;BME280;38656;54.260;20.822;2023-04-10T02:12:58;101963.31;;;18.78;47.33
52777;BME280;38656;54.260;20.822;2023-04-10T02:15:27;101956.94;;;18.50;48.06
52777;BME280;38656;54.260;20.822;2023-04-10T02:17:56;101952.75;;;18.67;47.39
52777;BME280;38656;54.260;20.822;2023-04-10T02:20:24;101960.66;;;18.68;47.36
52777;BME280;38656;54.260;20.822;2023-04-10T02:22:51;101951.19;;;18.45;48.02
52777;BME280;38656;54.260;20.822;2023-04-10T02:25:18;101955.25;;;18.39;49.38
52777;BME280;38656;54.260;20.822;2023-04-10T02:27:44;101956.72;;;16.86;52.56
52777;BME280;38656;54.260;20.822;2023-04-10T02:30:11;101959.97;;;17.64;52.37
52777;BME280;38656;54.260;20.822;2023-04-10T02:32:37;101954.34;;;18.19;49.87
52777;BME280;38656;54.260;20.822;2023-04-10T02:35:03;101953.56;;;17.76;50.70
52777;BME280;38656;54.260;20.822;2023-04-10T02:37:30;101967.38;;;18.43;49.25
52777;BME280;38656;54.260;20.822;2023-04-10T02:39:57;101968.22;;;18.63;48.49
52777;BME280;38656;54.260;20.822;2023-04-10T02:42:23;101971.69;;;16.88;52.95
52777;BME280;38656;54.260;20.822;2023-04-10T02:44:50;101971.84;;;14.43;62.12
52777;BME280;38656;54.260;20.822;2023-04-10T02:47:16;101977.44;;;14.51;64.12
52777;BME280;38656;54.260;20.822;2023-04-10T02:49:43;101967.06;;;15.79;59.63
52777;BME280;38656;54.260;20.822;2023-04-10T02:52:09;101971.31;;;16.26;57.33
52777;BME280;38656;54.260;20.822;2023-04-10T02:54:35;101963.78;;;17.40;53.25
52777;BME280;38656;54.260;20.822;2023-04-10T02:57:02;101967.06;;;17.96;51.82
52777;BME280;38656;54.260;20.822;2023-04-10T02:59:29;101975.19;;;17.42;52.72
52777;BME280;38656;54.260;20.822;2023-04-10T03:01:56;101978.91;;;17.30;53.01
52777;BME280;38656;54.260;20.822;2023-04-10T03:04:22;101976.28;;;17.61;51.74
52777;BME280;38656;54.260;20.822;2023-04-10T03:06:48;101974.06;;;17.66;51.72
52777;BME280;38656;54.260;20.822;2023-04-10T03:09:15;101983.59;;;17.16;53.35
52777;BME280;38656;54.260;20.822;2023-04-10T03:11:41;101978.03;;;18.33;49.76
52777;BME280;38656;54.260;20.822;2023-04-10T03:14:08;101976.34;;;18.42;49.31
52777;BME280;38656;54.260;20.822;2023-04-10T03:16:37;101973.25;;;18.37;48.97
52777;BME280;38656;54.260;20.822;2023-04-10T03:19:03;101979.94;;;18.21;49.36
52777;BME280;38656;54.260;20.822;2023-04-10T03:21:29;101979.72;;;18.25;49.06
52777;BME280;38656;54.260;20.822;2023-04-10T03:23:55;101982.41;;;18.03;49.19
52777;BME280;38656;54.260;20.822;2023-04-10T03:26:21;101979.66;;;17.63;50.37
52777;BME280;38656;54.260;20.822;2023-04-10T03:28:49;101976.34;;;16.63;55.21
52777;BME280;38656;54.260;20.822;2023-04-10T03:31:15;101974.06;;;17.66;52.57
52777;BME280;38656;54.260;20.822;2023-04-10T03:33:42;101971.44;;;17.97;50.05
52777;BME280;38656;54.260;20.822;2023-04-10T03:36:08;101966.41;;;17.82;50.22
52777;BME280;38656;54.260;20.822;2023-04-10T03:38:36;101978.47;;;17.98;49.56
52777;BME280;38656;54.260;20.822;2023-04-10T03:41:02;101980.75;;;18.02;49.04
52777;BME280;38656;54.260;20.822;2023-04-10T03:43:29;101979.09;;;18.11;49.00
52777;BME280;38656;54.260;20.822;2023-04-10T03:45:56;101979.63;;;18.05;48.87
52777;BME280;38656;54.260;20.822;2023-04-10T03:48:22;101978.22;;;18.01;49.14
52777;BME280;38656;54.260;20.822;2023-04-10T03:50:48;101975.53;;;18.01;49.09
52777;BME280;38656;54.260;20.822;2023-04-10T03:53:14;101976.34;;;17.92;48.70
52777;BME280;38656;54.260;20.822;2023-04-10T03:55:42;101978.75;;;17.95;50.40
52777;BME280;38656;54.260;20.822;2023-04-10T03:58:08;101982.44;;;17.19;52.13
52777;BME280;38656;54.260;20.822;2023-04-10T04:00:34;101983.91;;;17.65;50.79
52777;BME280;38656;54.260;20.822;2023-04-10T04:03:00;101987.59;;;17.74;50.73
52777;BME280;38656;54.260;20.822;2023-04-10T04:05:32;101994.91;;;17.72;51.02
52777;BME280;38656;54.260;20.822;2023-04-10T04:07:58;101984.56;;;17.58;51.89
52777;BME280;38656;54.260;20.822;2023-04-10T04:10:24;101985.75;;;17.96;50.18
52777;BME280;38656;54.260;20.822;2023-04-10T04:12:51;101984.72;;;18.08;49.62
52777;BME280;38656;54.260;20.822;2023-04-10T04:15:17;101993.72;;;18.07;49.32
52777;BME280;38656;54.260;20.822;2023-04-10T04:17:44;101987.66;;;16.44;53.73
52777;BME280;38656;54.260;20.822;2023-04-10T04:20:11;101997.63;;;17.19;53.43
52777;BME280;38656;54.260;20.822;2023-04-10T04:22:37;101992.69;;;16.70;57.23
52777;BME280;38656;54.260;20.822;2023-04-10T04:25:03;101995.63;;;17.74;52.05
52777;BME280;38656;54.260;20.822;2023-04-10T04:27:33;101989.16;;;17.98;51.47
52777;BME280;38656;54.260;20.822;2023-04-10T04:30:00;101988.63;;;18.04;50.85
52777;BME280;38656;54.260;20.822;2023-04-10T04:32:26;101997.75;;;17.80;52.10
52777;BME280;38656;54.260;20.822;2023-04-10T04:34:52;101998.03;;;17.77;51.57
52777;BME280;38656;54.260;20.822;2023-04-10T04:37:18;101994.50;;;17.98;52.14
52777;BME280;38656;54.260;20.822;2023-04-10T04:39:45;102008.06;;;17.22;53.69
52777;BME280;38656;54.260;20.822;2023-04-10T04:42:11;102008.31;;;18.03;52.82
52777;BME280;38656;54.260;20.822;2023-04-10T04:44:37;102016.84;;;15.78;60.35
52777;BME280;38656;54.260;20.822;2023-04-10T04:47:04;102016.03;;;17.75;55.89
52777;BME280;38656;54.260;20.822;2023-04-10T04:49:30;102016.16;;;17.95;54.17
52777;BME280;38656;54.260;20.822;2023-04-10T04:51:56;102013.19;;;18.19;53.44
52777;BME280;38656;54.260;20.822;2023-04-10T04:54:22;102019.75;;;18.15;53.50
52777;BME280;38656;54.260;20.822;2023-04-10T04:56:48;102026.91;;;16.20;60.87
52777;BME280;38656;54.260;20.822;2023-04-10T04:59:14;102031.97;;;15.42;65.59
52777;BME280;38656;54.260;20.822;2023-04-10T05:01:41;102029.78;;;16.73;59.89
52777;BME280;38656;54.260;20.822;2023-04-10T05:04:07;102021.88;;;18.11;58.45
52777;BME280;38656;54.260;20.822;2023-04-10T05:06:33;102020.38;;;19.67;52.70
52777;BME280;38656;54.260;20.822;2023-04-10T05:08:59;102020.00;;;20.09;51.94
52777;BME280;38656;54.260;20.822;2023-04-10T05:11:25;102023.63;;;19.80;51.33
52777;BME280;38656;54.260;20.822;2023-04-10T05:13:52;102036.97;;;15.58;62.72
52777;BME280;38656;54.260;20.822;2023-04-10T05:16:18;102032.47;;;15.94;63.12
52777;BME280;38656;54.260;20.822;2023-04-10T05:18:45;102037.50;;;15.74;67.26
52777;BME280;38656;54.260;20.822;2023-04-10T05:21:11;102035.38;;;16.36;65.47
52777;BME280;38656;54.260;20.822;2023-04-10T05:23:37;102034.16;;;16.74;64.09
52777;BME280;38656;54.260;20.822;2023-04-10T05:26:03;102025.91;;;19.36;54.78
52777;BME280;38656;54.260;20.822;2023-04-10T05:28:31;102031.72;;;19.02;55.14
52777;BME280;38656;54.260;20.822;2023-04-10T05:30:57;102027.78;;;18.15;58.04
52777;BME280;38656;54.260;20.822;2023-04-10T05:33:23;102030.88;;;17.26;58.47
52777;BME280;38656;54.260;20.822;2023-04-10T05:35:49;102039.25;;;16.66;60.88
52777;BME280;38656;54.260;20.822;2023-04-10T05:38:15;102031.00;;;18.49;56.91
52777;BME280;38656;54.260;20.822;2023-04-10T05:40:44;102029.91;;;19.98;51.02
52777;BME280;38656;54.260;20.822;2023-04-10T05:43:11;102035.34;;;19.79;53.14
52777;BME280;38656;54.260;20.822;2023-04-10T05:45:37;102034.81;;;20.13;50.27
52777;BME280;38656;54.260;20.822;2023-04-10T05:48:04;102035.25;;;20.74;48.24
52777;BME280;38656;54.260;20.822;2023-04-10T05:50:30;102029.44;;;20.96;48.53
52777;BME280;38656;54.260;20.822;2023-04-10T05:52:56;102034.03;;;21.58;47.77
52777;BME280;38656;54.260;20.822;2023-04-10T05:55:22;102034.66;;;17.86;55.97
52777;BME280;38656;54.260;20.822;2023-04-10T05:57:48;102036.38;;;20.43;48.71
52777;BME280;38656;54.260;20.822;2023-04-10T06:00:16;102031.72;;;21.27;47.15
52777;BME280;38656;54.260;20.822;2023-04-10T06:02:43;102034.97;;;18.14;54.54
52777;BME280;38656;54.260;20.822;2023-04-10T06:05:09;102034.09;;;20.11;51.43
52777;BME280;38656;54.260;20.822;2023-04-10T06:07:35;102023.44;;;22.17;47.42
52777;BME280;38656;54.260;20.822;2023-04-10T06:10:02;102027.44;;;21.79;46.89
52777;BME280;38656;54.260;20.822;2023-04-10T06:12:28;102027.78;;;23.28;43.15
52777;BME280;38656;54.260;20.822;2023-04-10T06:14:54;102029.22;;;22.82;44.44
52777;BME280;38656;54.260;20.822;2023-04-10T06:17:20;102040.78;;;20.62;47.63
52777;BME280;38656;54.260;20.822;2023-04-10T06:19:48;102037.03;;;20.55;45.09
52777;BME280;38656;54.260;20.822;2023-04-10T06:22:15;102036.06;;;22.25;44.15
52777;BME280;38656;54.260;20.822;2023-04-10T06:24:41;102042.41;;;19.80;49.15
52777;BME280;38656;54.260;20.822;2023-04-10T06:27:07;102046.47;;;21.59;44.03
52777;BME280;38656;54.260;20.822;2023-04-10T06:29:33;102028.31;;;22.56;42.75
52777;BME280;38656;54.260;20.822;2023-04-10T06:32:00;102048.22;;;20.13;47.40
52777;BME280;38656;54.260;20.822;2023-04-10T06:34:26;102042.03;;;20.96;45.05
52777;BME280;38656;54.260;20.822;2023-04-10T06:36:52;102031.69;;;21.89;43.12
52777;BME280;38656;54.260;20.822;2023-04-10T06:39:19;102047.50;;;19.05;45.12
52777;BME280;38656;54.260;20.822;2023-04-10T06:41:45;102040.59;;;18.52;47.84
52777;BME280;38656;54.260;20.822;2023-04-10T06:44:11;102040.97;;;19.76;46.76
52777;BME280;38656;54.260;20.822;2023-04-10T06:46:38;102027.06;;;21.73;44.49
52777;BME280;38656;54.260;20.822;2023-04-10T06:49:04;102038.88;;;20.17;45.86
52777;BME280;38656;54.260;20.822;2023-04-10T06:51:31;102043.13;;;19.43;45.39
52777;BME280;38656;54.260;20.822;2023-04-10T06:53:57;102047.25;;;21.33;43.96
52777;BME280;38656;54.260;20.822;2023-04-10T06:56:23;102045.28;;;22.40;42.90
52777;BME280;38656;54.260;20.822;2023-04-10T06:58:49;102044.69;;;21.94;42.35
52777;BME280;38656;54.260;20.822;2023-04-10T07:01:15;102054.53;;;21.05;42.15
52777;BME280;38656;54.260;20.822;2023-04-10T07:03:42;102053.91;;;18.73;47.48
52777;BME280;38656;54.260;20.822;2023-04-10T07:06:09;102045.91;;;18.42;48.37
52777;BME280;38656;54.260;20.822;2023-04-10T07:08:36;102050.50;;;23.75;41.38
52777;BME280;38656;54.260;20.822;2023-04-10T07:11:02;102052.41;;;20.53;44.66
52777;BME280;38656;54.260;20.822;2023-04-10T07:13:29;102056.00;;;20.44;46.02
52777;BME280;38656;54.260;20.822;2023-04-10T07:15:55;102055.66;;;19.52;44.98
52777;BME280;38656;54.260;20.822;2023-04-10T07:18:21;102047.06;;;22.74;41.82
52777;BME280;38656;54.260;20.822;2023-04-10T07:20:49;102042.38;;;22.85;41.04
52777;BME280;38656;54.260;20.822;2023-04-10T07:23:15;102047.72;;;22.68;40.83
52777;BME280;38656;54.260;20.822;2023-04-10T07:25:42;102045.91;;;22.00;43.22
52777;BME280;38656;54.260;20.822;2023-04-10T07:28:08;102047.81;;;23.83;41.69
52777;BME280;38656;54.260;20.822;2023-04-10T07:30:34;102043.81;;;23.38;41.43
52777;BME280;38656;54.260;20.822;2023-04-10T07:33:01;102040.91;;;26.14;36.52
52777;BME280;38656;54.260;20.822;2023-04-10T07:35:27;102050.91;;;20.78;43.15
52777;BME280;38656;54.260;20.822;2023-04-10T07:37:53;102042.00;;;22.02;40.57
52777;BME280;38656;54.260;20.822;2023-04-10T07:40:19;102044.22;;;25.10;37.97
52777;BME280;38656;54.260;20.822;2023-04-10T07:42:46;102039.22;;;28.07;33.48
52777;BME280;38656;54.260;20.822;2023-04-10T07:45:13;102039.34;;;28.96;33.95
52777;BME280;38656;54.260;20.822;2023-04-10T07:47:39;102035.03;;;30.34;30.29
52777;BME280;38656;54.260;20.822;2023-04-10T07:50:06;102028.88;;;29.87;29.00
52777;BME280;38656;54.260;20.822;2023-04-10T07:52:32;102030.16;;;29.64;31.11
52777;BME280;38656;54.260;20.822;2023-04-10T07:55:01;102029.66;;;31.92;28.77
52777;BME280;38656;54.260;20.822;2023-04-10T07:57:28;102023.00;;;32.55;26.39
52777;BME280;38656;54.260;20.822;2023-04-10T07:59:54;102033.03;;;28.75;28.49
52777;BME280;38656;54.260;20.822;2023-04-10T08:02:20;102023.34;;;31.73;27.66
52777;BME280;38656;54.260;20.822;2023-04-10T08:04:46;102030.69;;;32.77;27.75
52777;BME280;38656;54.260;20.822;2023-04-10T08:07:13;102024.59;;;33.17;25.65
52777;BME280;38656;54.260;20.822;2023-04-10T08:09:39;102027.63;;;32.85;25.13
52777;BME280;38656;54.260;20.822;2023-04-10T08:12:05;102026.97;;;30.52;27.74
52777;BME280;38656;54.260;20.822;2023-04-10T08:14:31;102032.22;;;31.43;28.02
52777;BME280;38656;54.260;20.822;2023-04-10T08:16:58;102023.94;;;31.75;27.50
52777;BME280;38656;54.260;20.822;2023-04-10T08:19:24;102024.78;;;32.61;26.62
52777;BME280;38656;54.260;20.822;2023-04-10T08:21:50;102031.19;;;33.51;25.80
52777;BME280;38656;54.260;20.822;2023-04-10T08:24:16;102030.44;;;34.32;24.67
52777;BME280;38656;54.260;20.822;2023-04-10T08:26:45;102026.03;;;34.60;25.58
52777;BME280;38656;54.260;20.822;2023-04-10T08:29:11;102029.56;;;34.72;25.15
52777;BME280;38656;54.260;20.822;2023-04-10T08:31:37;102029.53;;;34.27;25.43
52777;BME280;38656;54.260;20.822;2023-04-10T08:34:04;102019.06;;;34.69;24.54
52777;BME280;38656;54.260;20.822;2023-04-10T08:36:30;102021.75;;;33.59;25.38
52777;BME280;38656;54.260;20.822;2023-04-10T08:38:56;102015.47;;;32.51;26.65
52777;BME280;38656;54.260;20.822;2023-04-10T08:41:23;102018.34;;;31.88;27.36
52777;BME280;38656;54.260;20.822;2023-04-10T08:43:50;102019.75;;;32.46;27.06
52777;BME280;38656;54.260;20.822;2023-04-10T08:46:16;102016.41;;;34.17;24.28
52777;BME280;38656;54.260;20.822;2023-04-10T08:51:30;102010.47;;;34.95;24.07
52777;BME280;38656;54.260;20.822;2023-04-10T08:54:01;102008.94;;;35.38;24.40
52777;BME280;38656;54.260;20.822;2023-04-10T08:56:32;102010.91;;;33.76;25.21
52777;BME280;38656;54.260;20.822;2023-04-10T08:59:01;102015.16;;;31.73;26.77
52777;BME280;38656;54.260;20.822;2023-04-10T09:01:28;102013.13;;;35.06;24.85
52777;BME280;38656;54.260;20.822;2023-04-10T09:03:54;102008.63;;;35.34;24.20
52777;BME280;38656;54.260;20.822;2023-04-10T09:06:21;102004.34;;;34.75;26.00
52777;BME280;38656;54.260;20.822;2023-04-10T09:08:47;102011.38;;;35.73;23.96
52777;BME280;38656;54.260;20.822;2023-04-10T09:11:14;101996.81;;;37.04;23.51
52777;BME280;38656;54.260;20.822;2023-04-10T09:13:40;102003.09;;;34.09;24.69
52777;BME280;38656;54.260;20.822;2023-04-10T09:16:08;102011.47;;;33.90;25.13
52777;BME280;38656;54.260;20.822;2023-04-10T09:21:14;101999.81;;;35.71;24.92
52777;BME280;38656;54.260;20.822;2023-04-10T09:23:42;101997.31;;;36.36;24.24
52777;BME280;38656;54.260;20.822;2023-04-10T09:26:25;102000.44;;;29.69;28.38
52777;BME280;38656;54.260;20.822;2023-04-10T09:29:10;101998.19;;;24.72;35.93
52777;BME280;38656;54.260;20.822;2023-04-10T09:31:38;101983.25;;;31.48;31.25
52777;BME280;38656;54.260;20.822;2023-04-10T09:34:15;101986.75;;;34.43;27.96
52777;BME280;38656;54.260;20.822;2023-04-10T09:36:53;101981.69;;;35.75;24.67
52777;BME280;38656;54.260;20.822;2023-04-10T09:39:33;101984.69;;;33.68;25.36
52777;BME280;38656;54.260;20.822;2023-04-10T09:42:00;101977.09;;;35.59;26.26
52777;BME280;38656;54.260;20.822;2023-04-10T09:44:37;101973.84;;;33.74;25.98
52777;BME280;38656;54.260;20.822;2023-04-10T09:52:33;101964.03;;;36.70;24.42
52777;BME280;38656;54.260;20.822;2023-04-10T09:55:02;101957.06;;;36.62;23.61
52777;BME280;38656;54.260;20.822;2023-04-10T09:57:30;101960.22;;;37.57;23.42
52777;BME280;38656;54.260;20.822;2023-04-10T10:00:07;101950.03;;;38.67;21.91
52777;BME280;38656;54.260;20.822;2023-04-10T10:02:36;101952.44;;;39.09;22.21
52777;BME280;38656;54.260;20.822;2023-04-10T10:05:06;101949.63;;;38.01;23.59
52777;BME280;38656;54.260;20.822;2023-04-10T10:07:32;101949.38;;;37.40;23.57
52777;BME280;38656;54.260;20.822;2023-04-10T10:10:00;101948.88;;;37.05;22.43
52777;BME280;38656;54.260;20.822;2023-04-10T10:12:41;101940.56;;;39.04;22.82
52777;BME280;38656;54.260;20.822;2023-04-10T10:20:50;101933.84;;;37.81;23.09
52777;BME280;38656;54.260;20.822;2023-04-10T10:23:19;101926.72;;;37.96;21.89
52777;BME280;38656;54.260;20.822;2023-04-10T10:25:48;101931.50;;;36.99;22.51
52777;BME280;38656;54.260;20.822;2023-04-10T10:28:15;101921.31;;;37.05;22.63
52777;BME280;38656;54.260;20.822;2023-04-10T10:30:43;101918.38;;;33.19;26.07
52777;BME280;38656;54.260;20.822;2023-04-10T10:33:11;101915.06;;;28.76;31.45
52777;BME280;38656;54.260;20.822;2023-04-10T10:35:39;101911.66;;;29.55;31.58
52777;BME280;38656;54.260;20.822;2023-04-10T10:38:06;101905.28;;;29.88;30.89
52777;BME280;38656;54.260;20.822;2023-04-10T10:40:53;101911.31;;;28.91;30.72
52777;BME280;38656;54.260;20.822;2023-04-10T10:43:34;101904.88;;;36.13;24.89
52777;BME280;38656;54.260;20.822;2023-04-10T10:46:08;101907.41;;;38.06;23.57
52777;BME280;38656;54.260;20.822;2023-04-10T10:48:36;101900.28;;;38.46;22.55
52777;BME280;38656;54.260;20.822;2023-04-10T10:51:02;101899.44;;;30.54;29.40
52777;BME280;38656;54.260;20.822;2023-04-10T10:53:42;101901.50;;;37.03;24.07
52777;BME280;38656;54.260;20.822;2023-04-10T10:58:51;101891.69;;;37.96;22.12
52777;BME280;38656;54.260;20.822;2023-04-10T11:01:18;101883.69;;;38.05;22.59
52777;BME280;38656;54.260;20.822;2023-04-10T11:03:45;101885.34;;;37.96;24.18
52777;BME280;38656;54.260;20.822;2023-04-10T11:06:16;101877.63;;;38.08;23.13
52777;BME280;38656;54.260;20.822;2023-04-10T11:08:48;101876.97;;;37.60;22.17
52777;BME280;38656;54.260;20.822;2023-04-10T11:11:20;101883.91;;;37.72;22.98
52777;BME280;38656;54.260;20.822;2023-04-10T11:16:18;101877.94;;;38.53;22.42
52777;BME280;38656;54.260;20.822;2023-04-10T11:21:19;101867.09;;;38.92;22.33
52777;BME280;38656;54.260;20.822;2023-04-10T11:31:45;101863.28;;;38.83;22.15
52777;BME280;38656;54.260;20.822;2023-04-10T11:34:13;101871.75;;;36.67;22.81
52777;BME280;38656;54.260;20.822;2023-04-10T11:36:42;101866.75;;;35.72;24.34
52777;BME280;38656;54.260;20.822;2023-04-10T11:39:13;101865.19;;;37.22;23.32
52777;BME280;38656;54.260;20.822;2023-04-10T11:41:48;101862.06;;;34.33;25.88
52777;BME280;38656;54.260;20.822;2023-04-10T11:46:43;101858.63;;;33.16;26.82
52777;BME280;38656;54.260;20.822;2023-04-10T11:49:20;101847.22;;;34.85;27.07
52777;BME280;38656;54.260;20.822;2023-04-10T11:51:48;101846.31;;;37.46;24.44
52777;BME280;38656;54.260;20.822;2023-04-10T11:54:25;101855.47;;;37.57;24.18
52777;BME280;38656;54.260;20.822;2023-04-10T11:56:58;101843.41;;;37.88;22.89
52777;BME280;38656;54.260;20.822;2023-04-10T11:59:26;101846.22;;;31.33;28.39
52777;BME280;38656;54.260;20.822;2023-04-10T12:02:03;101841.88;;;33.65;26.75
52777;BME280;38656;54.260;20.822;2023-04-10T12:04:30;101840.84;;;35.90;25.47
52777;BME280;38656;54.260;20.822;2023-04-10T12:06:56;101825.63;;;37.38;24.81
52777;BME280;38656;54.260;20.822;2023-04-10T12:09:23;101837.78;;;37.52;23.22
52777;BME280;38656;54.260;20.822;2023-04-10T12:11:58;101830.34;;;36.14;24.35
52777;BME280;38656;54.260;20.822;2023-04-10T12:14:32;101834.94;;;28.52;33.01
52777;BME280;38656;54.260;20.822;2023-04-10T12:16:59;101827.28;;;30.76;30.91
52777;BME280;38656;54.260;20.822;2023-04-10T12:19:26;101820.19;;;35.16;24.90
52777;BME280;38656;54.260;20.822;2023-04-10T12:21:53;101820.63;;;36.02;24.95
52777;BME280;38656;54.260;20.822;2023-04-10T12:24:43;101820.81;;;35.01;25.08
52777;BME280;38656;54.260;20.822;2023-04-10T12:27:20;101817.38;;;35.55;23.38
52777;BME280;38656;54.260;20.822;2023-04-10T12:29:49;101811.91;;;37.53;21.13
52777;BME280;38656;54.260;20.822;2023-04-10T12:32:16;101817.78;;;34.81;23.45
52777;BME280;38656;54.260;20.822;2023-04-10T12:34:53;101813.28;;;30.91;27.85
52777;BME280;38656;54.260;20.822;2023-04-10T12:37:22;101803.97;;;33.33;25.86
52777;BME280;38656;54.260;20.822;2023-04-10T12:39:48;101797.09;;;28.91;31.72
52777;BME280;38656;54.260;20.822;2023-04-10T12:42:19;101792.88;;;28.95;29.83
52777;BME280;38656;54.260;20.822;2023-04-10T12:44:56;101804.94;;;27.79;31.83
52777;BME280;38656;54.260;20.822;2023-04-10T12:47:23;101797.03;;;27.35;31.91
52777;BME280;38656;54.260;20.822;2023-04-10T12:50:22;101790.59;;;32.84;26.28
52777;BME280;38656;54.260;20.822;2023-04-10T12:53:05;101796.78;;;27.72;32.62
52777;BME280;38656;54.260;20.822;2023-04-10T12:55:33;101785.78;;;30.92;28.59
52777;BME280;38656;54.260;20.822;2023-04-10T12:58:14;101787.63;;;32.97;28.46
52777;BME280;38656;54.260;20.822;2023-04-10T13:00:48;101783.28;;;33.25;26.83
52777;BME280;38656;54.260;20.822;2023-04-10T13:03:14;101777.63;;;32.91;24.58
52777;BME280;38656;54.260;20.822;2023-04-10T13:05:40;101776.75;;;34.18;24.76
52777;BME280;38656;54.260;20.822;2023-04-10T13:08:06;101774.22;;;34.67;23.46
52777;BME280;38656;54.260;20.822;2023-04-10T13:10:33;101776.19;;;29.89;27.51
52777;BME280;38656;54.260;20.822;2023-04-10T13:12:59;101763.09;;;34.23;24.59
52777;BME280;38656;54.260;20.822;2023-04-10T13:15:25;101762.88;;;34.08;23.80
52777;BME280;38656;54.260;20.822;2023-04-10T13:17:52;101754.34;;;33.29;24.34
52777;BME280;38656;54.260;20.822;2023-04-10T13:20:18;101753.16;;;27.87;31.81
52777;BME280;38656;54.260;20.822;2023-04-10T13:22:44;101750.25;;;31.17;27.04
52777;BME280;38656;54.260;20.822;2023-04-10T13:25:10;101743.44;;;33.06;25.62
52777;BME280;38656;54.260;20.822;2023-04-10T13:27:37;101746.97;;;31.76;26.74